Time;durP1;ratioP1;P1;durP2;ratioP2;P2;SDS_P1;SDS_P2;PMS_P1;PMS_P2;Temp;Humidity;BMP_temperature;BMP_pressure;BME280_temperature;BME280_humidity;BME280_pressure;Samples;Min_cycle;Max_cycle;Signal;HPM_P1;HPM_P2
2021/10/17 00:00:17;;;;;;;18.37;13.53;;;4.00;99.90;;;;;;5142394;28;20948;-83
2021/10/17 00:02:44;;;;;;;24.20;14.87;;;;;;;;;;5142142;28;20201;-84
2021/10/17 00:05:10;;;;;;;19.27;13.80;;;4.10;99.90;;;;;;5142495;28;20401;-84
2021/10/17 00:07:36;;;;;;;21.60;13.53;;;;;;;;;;5141885;28;20423;-84
2021/10/17 00:10:04;;;;;;;31.13;14.23;;;4.20;99.90;;;;;;5142247;28;20431;-84
2021/10/17 00:12:30;;;;;;;21.40;13.43;;;;;;;;;;5143374;27;20416;-84
2021/10/17 00:14:56;;;;;;;38.47;14.13;;;4.20;99.90;;;;;;5143369;28;20516;-84
2021/10/17 00:17:22;;;;;;;41.60;12.87;;;;;;;;;;5142930;28;20267;-84
2021/10/17 00:19:48;;;;;;;25.40;13.70;;;;;;;;;;5142522;28;20667;-84
2021/10/17 00:22:14;;;;;;;32.87;13.20;;;4.00;99.90;;;;;;5143564;28;20407;-84
2021/10/17 00:24:39;;;;;;;28.80;15.17;;;3.90;99.90;;;;;;5141493;28;20170;-84
2021/10/17 00:27:05;;;;;;;27.47;14.80;;;;;;;;;;5142828;28;20262;-83
2021/10/17 00:29:31;;;;;;;29.07;14.33;;;;;;;;;;5142250;28;20198;-84
2021/10/17 00:31:57;;;;;;;21.33;14.17;;;4.00;99.90;;;;;;5142725;28;20444;-83
2021/10/17 00:34:23;;;;;;;20.43;13.97;;;;;;;;;;5142409;28;20207;-84
2021/10/17 00:36:49;;;;;;;17.37;13.23;;;;;;;;;;5143804;28;20179;-85
2021/10/17 00:39:15;;;;;;;20.33;14.33;;;;;;;;;;5142392;28;20210;-84
2021/10/17 00:41:42;;;;;;;26.73;14.70;;;;;;;;;;5143196;28;20416;-84
2021/10/17 00:44:08;;;;;;;48.80;14.47;;;4.10;99.90;;;;;;5146288;28;20416;-84
2021/10/17 00:46:34;;;;;;;22.50;14.47;;;;;;;;;;5141156;28;20495;-84
2021/10/17 00:49:00;;;;;;;24.40;13.57;;;;;;;;;;5142765;28;20236;-83
2021/10/17 00:51:26;;;;;;;34.97;13.27;;;;;;;;;;5141771;28;20400;-84
2021/10/17 00:53:55;;;;;;;17.17;12.53;;;4.10;99.90;;;;;;5142937;28;20423;-84
2021/10/17 00:56:21;;;;;;;21.47;13.77;;;;;;;;;;5144859;27;20171;-84
2021/10/17 00:58:47;;;;;;;23.60;13.80;;;;;;;;;;5147325;27;20818;-84
2021/10/17 01:01:13;;;;;;;24.47;13.83;;;;;;;;;;5145542;27;20465;-85
2021/10/17 01:03:41;;;;;;;24.50;13.63;;;4.10;99.90;;;;;;5146715;27;20487;-84
2021/10/17 01:06:12;;;;;;;18.77;12.80;;;4.10;99.90;;;;;;5145713;27;20210;-84
2021/10/17 01:08:37;;;;;;;34.20;13.40;;;4.10;99.90;;;;;;5145018;27;20412;-84
2021/10/17 01:11:03;;;;;;;21.33;12.50;;;;;;;;;;5144344;27;20786;-83
2021/10/17 01:13:30;;;;;;;16.43;12.07;;;;;;;;;;5144678;27;20181;-84
2021/10/17 01:15:57;;;;;;;31.73;12.70;;;4.00;99.90;;;;;;5146222;27;20412;-84
2021/10/17 01:18:24;;;;;;;17.47;12.10;;;3.90;99.90;;;;;;5144865;27;20213;-84
2021/10/17 01:20:51;;;;;;;15.23;12.63;;;3.90;99.90;;;;;;5143181;27;20554;-84
2021/10/17 01:23:19;;;;;;;17.87;13.20;;;3.90;99.90;;;;;;5143829;27;20419;-84
2021/10/17 01:25:45;;;;;;;17.87;12.70;;;3.90;99.90;;;;;;5143674;27;20767;-83
2021/10/17 01:28:11;;;;;;;16.93;12.63;;;;;;;;;;5143557;27;20415;-84
2021/10/17 01:30:37;;;;;;;15.90;12.20;;;;;;;;;;5141463;27;20478;-84
2021/10/17 01:33:03;;;;;;;17.90;12.57;;;;;;;;;;5141905;27;20781;-84
2021/10/17 01:35:29;;;;;;;16.53;13.00;;;4.00;99.90;;;;;;5140777;27;20409;-84
2021/10/17 01:37:55;;;;;;;17.27;12.67;;;4.20;99.90;;;;;;5139090;27;20408;-84
2021/10/17 01:40:22;;;;;;;15.43;12.27;;;4.00;99.90;;;;;;5138386;27;20301;-85
2021/10/17 01:42:48;;;;;;;19.63;13.43;;;;;;;;;;5145989;27;20181;-84
2021/10/17 01:45:14;;;;;;;15.87;12.60;;;4.00;99.90;;;;;;5147881;27;20457;-84
2021/10/17 01:47:47;;;;;;;20.73;12.93;;;4.00;99.90;;;;;;5147374;27;20749;-84
2021/10/17 01:50:13;;;;;;;19.10;12.37;;;;;;;;;;5145087;27;20440;-83
2021/10/17 01:52:39;;;;;;;13.93;11.90;;;;;;;;;;5146015;27;20430;-84
2021/10/17 01:55:05;;;;;;;16.77;12.93;;;3.90;99.90;;;;;;5144950;27;20404;-84
2021/10/17 01:57:31;;;;;;;16.57;12.93;;;3.90;99.90;;;;;;5145584;27;20425;-83
2021/10/17 01:59:56;;;;;;;13.77;11.00;;;3.80;99.90;;;;;;5143504;27;20464;-84
2021/10/17 02:02:22;;;;;;;18.87;12.37;;;3.70;99.90;;;;;;5146200;27;20210;-84
2021/10/17 02:04:48;;;;;;;17.10;12.23;;;;;;;;;;5144664;27;20228;-84
2021/10/17 02:07:14;;;;;;;16.87;11.97;;;;;;;;;;5143939;27;20628;-84
2021/10/17 02:09:40;;;;;;;17.00;12.40;;;3.60;99.90;;;;;;5144259;27;20475;-83
2021/10/17 02:12:06;;;;;;;22.60;11.30;;;3.70;99.90;;;;;;5144448;27;20246;-84
2021/10/17 02:14:32;;;;;;;16.10;10.67;;;3.60;99.90;;;;;;5144535;27;20189;-84
2021/10/17 02:16:57;;;;;;;13.97;10.80;;;3.50;99.90;;;;;;5144173;27;20416;-83
2021/10/17 02:19:23;;;;;;;15.33;11.03;;;3.50;99.90;;;;;;5145282;27;20209;-84
2021/10/17 02:21:49;;;;;;;14.87;10.40;;;3.50;99.90;;;;;;5144746;27;20186;-84
2021/10/17 02:24:15;;;;;;;15.80;11.77;;;;;;;;;;5143973;27;20245;-84
2021/10/17 02:26:40;;;;;;;14.53;11.23;;;3.40;99.90;;;;;;5144504;27;20266;-84
2021/10/17 02:29:07;;;;;;;14.87;10.77;;;3.30;99.90;;;;;;5144268;27;20468;-84
2021/10/17 02:31:33;;;;;;;14.53;11.03;;;;;;;;;;5144254;27;20182;-84
2021/10/17 02:33:59;;;;;;;13.23;9.73;;;;;;;;;;5143459;27;20436;-84
2021/10/17 02:36:25;;;;;;;14.80;11.20;;;;;;;;;;5144132;27;20404;-84
2021/10/17 02:38:50;;;;;;;12.03;9.53;;;3.20;99.90;;;;;;5144608;27;20401;-84
2021/10/17 02:41:16;;;;;;;13.97;10.10;;;3.20;99.90;;;;;;5145968;27;20407;-83
2021/10/17 02:43:42;;;;;;;14.17;9.40;;;;;;;;;;5145250;27;20222;-83
2021/10/17 02:46:08;;;;;;;15.07;10.53;;;;;;;;;;5145281;27;20224;-84
2021/10/17 02:48:34;;;;;;;13.00;9.90;;;;;;;;;;5142955;27;20401;-83
2021/10/17 02:51:00;;;;;;;11.30;8.90;;;3.00;99.90;;;;;;5143961;27;20406;-84
2021/10/17 02:53:26;;;;;;;12.53;9.53;;;3.00;99.90;;;;;;5144728;27;20174;-83
2021/10/17 02:55:51;;;;;;;13.37;9.50;;;3.00;99.90;;;;;;5142841;27;20218;-84
2021/10/17 02:58:17;;;;;;;11.93;9.50;;;3.00;99.90;;;;;;5144059;27;20265;-83
2021/10/17 03:00:42;;;;;;;13.03;10.50;;;3.00;99.90;;;;;;5144291;27;20240;-84
2021/10/17 03:03:08;;;;;;;13.80;10.47;;;3.10;99.90;;;;;;5143099;27;20223;-84
2021/10/17 03:05:34;;;;;;;15.30;10.07;;;;;;;;;;5143276;27;20182;-84
2021/10/17 03:08:00;;;;;;;14.37;9.97;;;3.10;99.90;;;;;;5144370;27;20171;-84
2021/10/17 03:10:25;;;;;;;12.03;8.53;;;3.00;99.90;;;;;;5143826;27;20215;-84
2021/10/17 03:12:52;;;;;;;14.17;10.33;;;;;;;;;;5144411;27;20261;-83
2021/10/17 03:15:18;;;;;;;15.93;11.80;;;;;;;;;;5143920;27;20206;-83
2021/10/17 03:17:43;;;;;;;14.70;10.67;;;3.00;99.90;;;;;;5142957;27;20400;-84
2021/10/17 03:20:10;;;;;;;16.10;10.90;;;3.00;99.90;;;;;;5142284;27;20213;-84
2021/10/17 03:22:36;;;;;;;14.20;10.50;;;;;;;;;;5143160;27;20175;-84
2021/10/17 03:25:03;;;;;;;15.87;10.93;;;;;;;;;;5142650;27;20500;-84
2021/10/17 03:27:28;;;;;;;14.33;9.70;;;3.00;99.90;;;;;;5144549;27;20396;-84
2021/10/17 03:29:55;;;;;;;16.77;10.47;;;;;;;;;;5143072;27;20443;-84
2021/10/17 03:32:21;;;;;;;15.87;10.77;;;;;;;;;;5143814;27;20613;-84
2021/10/17 03:34:46;;;;;;;14.00;10.17;;;3.10;99.90;;;;;;5142898;27;20421;-84
2021/10/17 03:37:12;;;;;;;15.03;9.97;;;3.10;99.90;;;;;;5144337;27;20182;-84
2021/10/17 03:39:37;;;;;;;14.57;10.40;;;3.10;99.90;;;;;;5143477;27;20211;-84
2021/10/17 03:42:03;;;;;;;17.57;11.03;;;4.00;99.90;;;;;;5143969;27;20183;-84
2021/10/17 03:44:29;;;;;;;17.97;13.37;;;;;;;;;;5143722;27;20178;-84
2021/10/17 03:46:55;;;;;;;20.70;13.30;;;3.20;99.90;;;;;;5144292;27;20277;-84
2021/10/17 03:49:21;;;;;;;16.20;10.47;;;;;;;;;;5143661;27;20267;-84
2021/10/17 03:51:47;;;;;;;22.60;11.77;;;;;;;;;;5144642;27;20179;-84
2021/10/17 03:54:13;;;;;;;18.90;13.03;;;3.20;99.90;;;;;;5143599;27;20416;-84
2021/10/17 03:56:39;;;;;;;16.03;11.53;;;;;;;;;;5144234;27;20182;-84
2021/10/17 03:59:04;;;;;;;17.77;12.23;;;3.30;99.90;;;;;;5143292;27;20199;-84
2021/10/17 04:01:30;;;;;;;19.47;12.30;;;;;;;;;;5144474;27;20171;-84
2021/10/17 04:03:57;;;;;;;27.00;15.63;;;;;;;;;;5145175;28;20574;-84
2021/10/17 04:06:23;;;;;;;18.07;12.00;;;;;;;;;;5146998;28;20393;-84
2021/10/17 04:08:49;;;;;;;17.33;11.47;;;;;;;;;;5146219;28;20407;-84
2021/10/17 04:11:15;;;;;;;22.83;14.67;;;;;;;;;;5147471;28;20396;-84
2021/10/17 04:13:40;;;;;;;23.27;15.67;;;3.30;99.90;;;;;;5145108;28;20624;-84
2021/10/17 04:16:07;;;;;;;26.00;16.20;;;3.30;99.90;;;;;;5144610;28;20178;-84
2021/10/17 04:18:33;;;;;;;25.10;15.93;;;;;;;;;;5144051;28;20182;-84
2021/10/17 04:20:58;;;;;;;21.70;13.63;;;3.30;99.90;;;;;;5144351;28;20504;-84
2021/10/17 04:23:25;;;;;;;22.83;12.93;;;3.30;99.90;;;;;;5141903;28;20849;-84
2021/10/17 04:25:51;;;;;;;20.33;12.70;;;3.30;99.90;;;;;;5141833;28;20181;-84
2021/10/17 04:28:17;;;;;;;16.93;11.93;;;;;;;;;;5141260;28;20499;-84
2021/10/17 04:30:42;;;;;;;22.17;14.03;;;3.20;99.90;;;;;;5142633;27;20663;-84
2021/10/17 04:33:08;;;;;;;18.40;11.90;;;3.20;99.90;;;;;;5144221;27;20195;-84
2021/10/17 04:35:38;;;;;;;13.73;11.13;;;3.30;99.90;;;;;;5144880;27;20171;-84
2021/10/17 04:38:05;;;;;;;17.93;11.07;;;3.20;99.90;;;;;;5144246;27;20178;-84
2021/10/17 04:40:32;;;;;;;15.83;11.43;;;3.20;99.90;;;;;;5142504;27;20463;-85
2021/10/17 04:42:59;;;;;;;15.50;10.37;;;3.20;99.90;;;;;;5140836;27;20404;-84
2021/10/17 04:45:25;;;;;;;12.43;9.20;;;;;;;;;;5138861;27;20416;-85
2021/10/17 04:47:51;;;;;;;13.97;10.13;;;3.20;99.90;;;;;;5143538;27;20496;-85
2021/10/17 04:50:16;;;;;;;12.57;9.77;;;3.20;99.90;;;;;;5148399;27;20214;-84
2021/10/17 04:52:42;;;;;;;13.97;9.27;;;3.20;99.90;;;;;;5147227;27;20187;-84
2021/10/17 04:55:08;;;;;;;12.80;8.83;;;3.10;99.90;;;;;;5149059;27;20182;-85
2021/10/17 04:57:35;;;;;;;14.73;9.83;;;3.20;99.90;;;;;;5148467;27;20182;-84
2021/10/17 05:00:02;;;;;;;11.87;8.60;;;3.50;99.90;;;;;;5148316;27;20554;-84
2021/10/17 05:02:28;;;;;;;12.40;9.43;;;;;;;;;;5147307;27;20931;-85
2021/10/17 05:04:54;;;;;;;12.23;8.40;;;3.10;99.90;;;;;;5146976;27;20487;-85
2021/10/17 05:07:20;;;;;;;10.87;7.97;;;;;;;;;;5146603;27;20175;-85
2021/10/17 05:09:45;;;;;;;12.97;8.93;;;3.10;99.90;;;;;;5148756;27;20212;-84
2021/10/17 05:12:11;;;;;;;9.83;8.20;;;3.20;99.90;;;;;;5146879;27;20266;-84
2021/10/17 05:14:36;;;;;;;11.60;8.20;;;3.80;99.90;;;;;;5146694;27;20532;-84
2021/10/17 05:17:03;;;;;;;12.40;7.97;;;;;;;;;;5148653;27;20679;-85
2021/10/17 05:19:29;;;;;;;11.53;8.23;;;;;;;;;;5147690;27;20213;-84
2021/10/17 05:21:54;;;;;;;12.33;8.03;;;3.00;99.90;;;;;;5147228;27;20412;-84
2021/10/17 05:24:20;;;;;;;12.97;8.50;;;;;;;;;;5148213;27;20427;-84
2021/10/17 05:26:46;;;;;;;11.40;8.50;;;;;;;;;;5147106;27;20171;-86
2021/10/17 05:29:12;;;;;;;12.70;8.67;;;3.00;99.90;;;;;;5146540;27;20455;-84
2021/10/17 05:31:38;;;;;;;12.83;7.77;;;2.90;99.90;;;;;;5149077;27;20181;-84
2021/10/17 05:34:03;;;;;;;11.03;7.73;;;4.10;99.90;;;;;;5149214;27;20186;-84
2021/10/17 05:36:29;;;;;;;10.93;8.03;;;3.50;99.90;;;;;;5150649;27;20211;-84
2021/10/17 05:38:55;;;;;;;14.37;7.77;;;;;;;;;;5146725;27;20198;-84
2021/10/17 05:41:22;;;;;;;10.33;7.33;;;;;;;;;;5148508;27;20175;-84
2021/10/17 05:43:49;;;;;;;9.53;7.60;;;2.90;99.90;;;;;;5145327;27;20397;-85
2021/10/17 05:46:15;;;;;;;9.77;7.23;;;2.90;99.90;;;;;;5148349;27;20404;-84
2021/10/17 05:48:41;;;;;;;9.67;7.10;;;;;;;;;;5146776;27;20416;-85
2021/10/17 05:51:07;;;;;;;10.97;7.93;;;;;;;;;;5147957;27;20409;-84
2021/10/17 05:53:33;;;;;;;12.03;7.50;;;;;;;;;;5146610;27;20503;-85
2021/10/17 05:55:59;;;;;;;10.77;7.87;;;2.80;99.90;;;;;;5146276;27;20448;-85
2021/10/17 05:58:25;;;;;;;10.03;6.93;;;;;;;;;;5146215;27;20197;-84
2021/10/17 06:00:50;;;;;;;11.80;7.40;;;2.90;99.90;;;;;;5145891;27;20214;-85
2021/10/17 06:03:16;;;;;;;10.90;7.80;;;2.80;99.90;;;;;;5146655;27;20210;-85
2021/10/17 06:05:42;;;;;;;11.73;8.47;;;;;;;;;;5146535;27;20175;-85
2021/10/17 06:08:08;;;;;;;10.67;7.57;;;;;;;;;;5146278;27;20174;-85
2021/10/17 06:10:34;;;;;;;12.93;8.87;;;;;;;;;;5147153;27;20416;-85
2021/10/17 06:13:00;;;;;;;15.57;9.77;;;;;;;;;;5147278;27;20396;-85
2021/10/17 06:15:26;;;;;;;16.23;11.27;;;;;;;;;;5145473;27;20424;-85
2021/10/17 06:17:52;;;;;;;17.63;10.47;;;;;;;;;;5146415;27;20400;-85
2021/10/17 06:20:19;;;;;;;31.63;18.03;;;;;;;;;;5147036;27;20460;-85
2021/10/17 06:22:45;;;;;;;22.40;12.53;;;;;;;;;;5145472;27;20516;-85
2021/10/17 06:25:11;;;;;;;22.83;13.10;;;;;;;;;;5145481;27;20416;-85
2021/10/17 06:27:37;;;;;;;15.03;9.93;;;;;;;;;;5145228;27;20773;-85
2021/10/17 06:30:03;;;;;;;13.53;9.33;;;;;;;;;;5147318;27;20424;-85
2021/10/17 06:32:29;;;;;;;15.43;10.90;;;;;;;;;;5145638;27;20439;-84
2021/10/17 06:34:55;;;;;;;17.70;11.20;;;3.40;99.90;;;;;;5150084;27;20409;-84
2021/10/17 06:37:21;;;;;;;12.40;9.57;;;;;;;;;;5147205;27;20441;-85
2021/10/17 06:39:47;;;;;;;11.90;9.40;;;;;;;;;;5147422;27;20203;-84
2021/10/17 06:42:13;;;;;;;14.07;9.97;;;3.60;99.90;;;;;;5147028;27;20408;-85
2021/10/17 06:44:39;;;;;;;13.90;10.23;;;;;;;;;;5146865;27;20194;-85
2021/10/17 06:47:05;;;;;;;12.20;8.97;;;;;;;;;;5145405;27;20411;-84
2021/10/17 06:49:31;;;;;;;16.73;9.13;;;;;;;;;;5145780;27;20785;-85
2021/10/17 06:51:57;;;;;;;13.17;8.23;;;;;;;;;;5144129;27;20413;-85
2021/10/17 06:54:23;;;;;;;11.20;8.23;;;;;;;;;;5143625;27;20405;-84
2021/10/17 06:56:49;;;;;;;10.13;7.70;;;;;;;;;;5144261;27;20458;-85
2021/10/17 06:59:15;;;;;;;12.23;8.70;;;;;;;;;;5143344;27;20239;-84
2021/10/17 07:01:41;;;;;;;10.60;7.87;;;4.10;99.90;;;;;;5143840;27;20409;-85
2021/10/17 07:04:07;;;;;;;10.53;7.40;;;;;;;;;;5143227;27;20655;-85
2021/10/17 07:06:33;;;;;;;12.27;8.10;;;;;;;;;;5143568;27;20182;-84
2021/10/17 07:08:59;;;;;;;11.90;7.97;;;;;;;;;;5142876;27;20428;-85
2021/10/17 07:11:25;;;;;;;9.50;6.93;;;4.40;99.90;;;;;;5142558;27;20428;-84
2021/10/17 07:13:51;;;;;;;10.40;7.00;;;;;;;;;;5143776;27;20215;-84
2021/10/17 07:16:16;;;;;;;9.23;6.80;;;4.60;99.90;;;;;;5143622;27;20201;-84
2021/10/17 07:18:42;;;;;;;10.30;7.73;;;;;;;;;;5143886;27;20179;-84
2021/10/17 07:21:08;;;;;;;11.10;6.70;;;;;;;;;;5143910;27;20203;-84
2021/10/17 07:23:34;;;;;;;9.47;6.47;;;;;;;;;;5144253;27;20965;-85
2021/10/17 07:26:00;;;;;;;8.43;7.20;;;;;;;;;;5149904;27;20409;-83
2021/10/17 07:28:27;;;;;;;10.20;7.50;;;;;;;;;;5153437;27;20400;-83
2021/10/17 07:30:52;;;;;;;12.03;7.60;;;5.30;99.90;;;;;;5147968;27;20432;-84
2021/10/17 07:33:18;;;;;;;9.03;7.00;;;5.40;99.90;;;;;;5140866;27;20512;-84
2021/10/17 07:35:44;;;;;;;12.30;7.57;;;;;;;;;;5142099;27;20586;-84
2021/10/17 07:38:09;;;;;;;9.70;7.23;;;5.50;99.90;;;;;;5143001;27;20618;-84
2021/10/17 07:40:35;;;;;;;10.40;7.97;;;5.70;99.90;;;;;;5139634;27;20297;-84
2021/10/17 07:43:01;;;;;;;10.70;7.70;;;5.90;99.90;;;;;;5137417;27;20320;-83
2021/10/17 07:45:26;;;;;;;9.67;6.90;;;6.30;99.90;;;;;;5137621;27;20178;-84
2021/10/17 07:47:52;;;;;;;10.30;7.23;;;6.80;99.90;;;;;;5135087;27;20179;-84
2021/10/17 07:50:18;;;;;;;9.47;7.13;;;7.30;99.90;;;;;;5136642;27;20202;-84
2021/10/17 07:52:44;;;;;;;9.83;7.27;;;7.30;99.90;;;;;;5141803;27;20184;-84
2021/10/17 07:55:10;;;;;;;8.60;6.73;;;;;;;;;;5143454;27;20182;-85
2021/10/17 07:57:49;;;;;;;9.67;6.87;;;7.20;99.90;;;;;;5142955;27;20254;-84
2021/10/17 08:00:20;;;;;;;9.40;7.47;;;7.30;99.90;;;;;;5142671;27;20211;-85
2021/10/17 08:02:46;;;;;;;8.23;6.57;;;7.50;99.90;;;;;;5142582;27;20176;-85
2021/10/17 08:05:12;;;;;;;8.43;6.53;;;7.80;99.90;;;;;;5144288;27;20553;-85
2021/10/17 08:07:37;;;;;;;9.10;6.70;;;8.70;99.90;;;;;;5141694;28;20191;-85
2021/10/17 08:10:04;;;;;;;7.17;5.90;;;9.70;99.90;;;;;;5142173;28;20214;-85
2021/10/17 08:12:29;;;;;;;7.63;5.80;;;10.50;99.90;;;;;;5143972;28;20175;-85
2021/10/17 08:14:55;;;;;;;8.17;5.33;;;11.00;99.90;;;;;;5142085;28;20179;-84
2021/10/17 08:17:21;;;;;;;6.70;5.80;;;11.30;99.90;;;;;;5143389;28;20704;-85
2021/10/17 08:19:46;;;;;;;9.40;5.93;;;11.70;99.90;;;;;;5142881;28;20246;-85
2021/10/17 08:22:12;;;;;;;6.87;5.73;;;12.20;99.90;;;;;;5142446;28;20236;-85
2021/10/17 08:24:37;;;;;;;6.93;5.53;;;12.50;99.90;;;;;;5141084;28;20219;-85
2021/10/17 08:27:03;;;;;;;7.77;6.23;;;12.70;99.90;;;;;;5143726;28;20228;-85
2021/10/17 08:29:29;;;;;;;7.90;6.43;;;13.00;99.90;;;;;;5143379;28;20195;-85
2021/10/17 08:31:55;;;;;;;8.13;5.53;;;13.00;99.90;;;;;;5142432;28;20218;-85
2021/10/17 08:34:20;;;;;;;9.37;6.60;;;13.00;99.90;;;;;;5143674;28;20190;-85
2021/10/17 08:36:46;;;;;;;7.97;6.80;;;13.10;99.90;;;;;;5142608;28;20705;-85
2021/10/17 08:39:11;;;;;;;9.00;6.90;;;13.20;99.90;;;;;;5143118;28;20209;-85
2021/10/17 08:41:39;;;;;;;8.20;6.63;;;13.50;99.90;;;;;;5143633;28;20175;-85
2021/10/17 08:44:05;;;;;;;7.23;6.37;;;14.00;99.90;;;;;;5142793;28;20624;-85
2021/10/17 08:46:33;;;;;;;8.10;6.50;;;14.30;99.90;;;;;;5142834;28;20183;-85
2021/10/17 08:48:59;;;;;;;9.20;6.80;;;14.30;99.90;;;;;;5143970;28;20197;-85
2021/10/17 08:51:26;;;;;;;11.30;6.93;;;14.60;99.90;;;;;;5142716;28;20191;-85
2021/10/17 08:53:52;;;;;;;9.57;7.50;;;14.80;99.90;;;;;;5143384;28;20248;-82
2021/10/17 08:56:19;;;;;;;8.73;7.67;;;14.80;99.90;;;;;;5145065;28;20177;-82
2021/10/17 08:58:44;;;;;;;8.97;7.90;;;14.80;99.90;;;;;;5144829;28;20177;-83
2021/10/17 09:01:14;;;;;;;8.03;7.23;;;14.90;99.90;;;;;;5146935;28;20681;-82
2021/10/17 09:03:40;;;;;;;9.90;7.67;;;15.20;99.90;;;;;;5144100;28;20181;-83
2021/10/17 09:06:26;;;;;;;8.10;7.17;;;15.50;99.90;;;;;;5142500;28;20196;-82
2021/10/17 09:09:09;;;;;;;10.70;9.40;;;16.00;99.90;;;;;;5143953;28;20173;-83
2021/10/17 09:11:39;;;;;;;10.40;9.30;;;16.10;99.90;;;;;;5145131;28;20192;-84
2021/10/17 09:14:19;;;;;;;10.53;9.00;;;16.60;99.90;;;;;;5142809;28;20175;-83
2021/10/17 09:16:48;;;;;;;10.83;9.07;;;16.60;99.90;;;;;;5144861;27;20202;-83
2021/10/17 09:19:15;;;;;;;11.63;9.00;;;17.00;99.90;;;;;;5148151;27;20226;-83
2021/10/17 09:22:06;;;;;;;11.77;9.30;;;16.80;99.90;;;;;;5147856;27;20613;-83
2021/10/17 09:24:56;;;;;;;10.30;9.20;;;16.70;99.90;;;;;;5146182;27;20265;-84
2021/10/17 09:27:23;;;;;;;10.83;9.20;;;16.90;99.90;;;;;;5146095;27;20591;-83
2021/10/17 09:29:54;;;;;;;9.53;8.40;;;17.10;99.90;;;;;;5146949;27;20199;-83
2021/10/17 09:32:23;;;;;;;11.77;9.30;;;17.10;99.90;;;;;;5148847;27;20188;-83
2021/10/17 09:34:58;;;;;;;10.07;8.77;;;17.10;99.90;;;;;;5147536;27;20177;-83
2021/10/17 09:37:41;;;;;;;11.37;9.43;;;17.60;99.90;;;;;;5151536;27;20227;-83
2021/10/17 09:40:17;;;;;;;9.90;8.90;;;17.80;99.90;;;;;;5149261;27;20216;-83
2021/10/17 09:43:13;;;;;;;10.30;9.30;;;17.90;99.90;;;;;;5150256;27;20164;-83
2021/10/17 09:45:41;;;;;;;11.63;8.93;;;18.10;99.90;;;;;;5146213;27;20243;-83
2021/10/17 09:48:08;;;;;;;10.10;9.07;;;18.40;99.90;;;;;;5146262;27;20189;-83
2021/10/17 09:50:34;;;;;;;9.53;8.60;;;18.60;99.90;;;;;;5146730;27;20296;-83
2021/10/17 09:53:11;;;;;;;10.10;8.73;;;18.70;99.90;;;;;;5146330;27;20175;-83
2021/10/17 09:55:37;;;;;;;10.63;8.60;;;17.30;99.90;;;;;;5145534;27;20189;-82
2021/10/17 09:58:06;;;;;;;9.07;8.17;;;16.20;99.90;;;;;;5149498;27;20259;-82
2021/10/17 10:00:38;;;;;;;10.97;9.17;;;16.30;99.90;;;;;;5148577;27;20207;-82
2021/10/17 10:03:07;;;;;;;9.67;8.67;;;16.90;99.90;;;;;;5145556;27;20574;-82
2021/10/17 10:05:34;;;;;;;10.17;8.50;;;17.30;99.90;;;;;;5146042;27;20178;-82
2021/10/17 10:08:01;;;;;;;9.80;8.80;;;17.50;99.90;;;;;;5144317;27;20705;-82
2021/10/17 10:10:28;;;;;;;9.83;8.83;;;17.80;99.90;;;;;;5145991;27;20560;-82
2021/10/17 10:12:57;;;;;;;11.07;8.33;;;18.20;99.90;;;;;;5145740;27;20178;-83
2021/10/17 10:15:25;;;;;;;8.73;7.90;;;18.50;99.90;;;;;;5144200;27;20192;-82
2021/10/17 10:17:51;;;;;;;10.30;8.20;;;18.80;99.90;;;;;;5143987;27;20180;-83
2021/10/17 10:20:16;;;;;;;9.20;8.20;;;18.80;99.90;;;;;;5145255;27;20299;-82
2021/10/17 10:22:44;;;;;;;9.70;8.43;;;18.60;99.90;;;;;;5143542;27;20200;-83
2021/10/17 10:25:13;;;;;;;10.27;8.63;;;18.40;99.90;;;;;;5144441;27;20172;-82
2021/10/17 10:27:40;;;;;;;11.83;8.97;;;18.70;99.90;;;;;;5143436;27;20184;-82
2021/10/17 10:30:25;;;;;;;10.20;8.97;;;18.70;99.90;;;;;;5142974;27;20203;-82
2021/10/17 10:33:21;;;;;;;9.57;8.37;;;18.90;99.90;;;;;;5142257;27;20559;-83
2021/10/17 10:36:04;;;;;;;10.47;8.97;;;19.00;99.90;;;;;;5128909;27;20650;-83
2021/10/17 10:39:12;;;;;;;9.87;8.30;;;19.30;99.90;;;;;;5140606;27;20179;-83
2021/10/17 10:41:53;;;;;;;9.80;8.80;;;19.40;99.90;;;;;;5113571;27;20686;-83
2021/10/17 10:44:24;;;;;;;10.40;9.40;;;19.90;99.90;;;;;;5142553;27;20238;-82
2021/10/17 10:46:52;;;;;;;9.67;8.43;;;20.30;99.90;;;;;;5141301;27;20190;-83
2021/10/17 10:49:38;;;;;;;8.70;7.90;;;20.60;99.90;;;;;;5138392;27;20259;-82
2021/10/17 10:52:04;;;;;;;9.43;8.37;;;20.70;99.90;;;;;;5137794;27;20254;-82
2021/10/17 10:54:29;;;;;;;9.83;8.10;;;20.80;99.90;;;;;;5142835;27;20215;-83
2021/10/17 10:56:56;;;;;;;13.77;9.30;;;21.10;99.90;;;;;;5146126;27;20213;-83
2021/10/17 10:59:29;;;;;;;9.30;8.40;;;20.90;99.90;;;;;;5147193;27;20254;-83
2021/10/17 11:01:57;;;;;;;9.27;8.37;;;21.10;99.90;;;;;;5145947;27;20179;-83
2021/10/17 11:04:41;;;;;;;9.83;8.10;;;21.00;99.10;;;;;;5143967;27;20181;-83
2021/10/17 11:07:31;;;;;;;9.07;7.80;;;20.70;99.70;;;;;;5148238;27;20188;-83
2021/10/17 11:10:23;;;;;;;9.37;8.47;;;20.80;99.90;;;;;;5143522;27;20221;-85
2021/10/17 11:12:59;;;;;;;10.37;8.60;;;20.90;99.30;;;;;;5146274;27;20175;-83
2021/10/17 11:15:30;;;;;;;9.30;8.40;;;21.10;97.70;;;;;;5144888;27;20189;-83
2021/10/17 11:18:00;;;;;;;9.20;8.40;;;21.10;99.20;;;;;;5146730;27;20177;-83
2021/10/17 11:20:34;;;;;;;8.30;7.50;;;21.40;97.70;;;;;;5145723;27;20201;-83
2021/10/17 11:23:01;;;;;;;8.47;7.67;;;21.20;95.80;;;;;;5147472;27;20632;-83
2021/10/17 11:25:28;;;;;;;8.53;7.73;;;21.20;96.80;;;;;;5147190;27;20185;-83
2021/10/17 11:27:54;;;;;;;8.27;7.47;;;21.20;96.00;;;;;;5149281;27;20200;-83
2021/10/17 11:30:31;;;;;;;9.13;7.87;;;21.60;95.90;;;;;;5143371;27;20203;-83
2021/10/17 11:32:59;;;;;;;8.70;7.90;;;21.40;95.90;;;;;;5145475;27;20195;-83
2021/10/17 11:35:37;;;;;;;8.70;7.80;;;21.90;96.50;;;;;;5143529;27;20171;-84
2021/10/17 11:38:04;;;;;;;9.47;8.47;;;21.90;95.70;;;;;;5146941;27;20190;-83
2021/10/17 11:40:33;;;;;;;9.03;8.10;;;21.70;96.60;;;;;;5143841;27;20195;-83
2021/10/17 11:43:02;;;;;;;10.73;8.57;;;21.50;95.90;;;;;;5144876;27;20186;-83
2021/10/17 11:45:36;;;;;;;9.10;8.20;;;21.70;97.30;;;;;;5147183;27;20171;-83
2021/10/17 11:48:05;;;;;;;9.90;8.90;;;22.00;96.20;;;;;;5144793;27;20231;-83
2021/10/17 11:50:42;;;;;;;9.53;8.03;;;22.20;95.20;;;;;;5143746;27;20230;-83
2021/10/17 11:53:10;;;;;;;8.67;7.77;;;22.00;94.40;;;;;;5145226;27;20167;-83
2021/10/17 11:55:49;;;;;;;9.07;8.03;;;22.30;94.90;;;;;;5145532;27;20175;-83
2021/10/17 11:58:25;;;;;;;9.90;8.03;;;22.80;94.40;;;;;;5145534;27;20619;-83
2021/10/17 12:00:57;;;;;;;8.70;7.80;;;23.30;93.90;;;;;;5143372;27;20656;-83
2021/10/17 12:03:24;;;;;;;9.80;8.80;;;23.80;94.10;;;;;;5144641;27;20182;-83
2021/10/17 12:05:52;;;;;;;11.67;8.47;;;23.80;91.00;;;;;;5145366;28;20220;-82
2021/10/17 12:08:26;;;;;;;10.03;9.10;;;24.00;92.60;;;;;;5144945;28;20170;-82
2021/10/17 12:11:01;;;;;;;8.83;8.00;;;24.40;88.90;;;;;;5144578;28;20553;-82
2021/10/17 12:13:28;;;;;;;8.97;8.07;;;24.90;91.80;;;;;;5144050;28;20227;-82
2021/10/17 12:16:07;;;;;;;9.47;7.17;;;24.80;85.60;;;;;;5143697;28;20242;-82
2021/10/17 12:18:33;;;;;;;8.40;7.63;;;24.70;88.60;;;;;;5146414;28;20185;-82
2021/10/17 12:21:00;;;;;;;9.37;8.40;;;24.80;87.50;;;;;;5146991;28;20342;-83
2021/10/17 12:23:26;;;;;;;9.37;8.37;;;25.10;88.20;;;;;;5145227;28;20195;-82
2021/10/17 12:25:52;;;;;;;9.13;7.47;;;25.00;83.60;;;;;;5144832;28;20178;-83
2021/10/17 12:28:19;;;;;;;10.00;8.00;;;24.80;88.90;;;;;;5145963;28;20249;-82
2021/10/17 12:30:52;;;;;;;9.20;8.17;;;25.20;84.30;;;;;;5146442;28;20209;-82
2021/10/17 12:33:33;;;;;;;8.80;7.93;;;25.50;84.10;;;;;;5147773;28;20193;-82
2021/10/17 12:36:03;;;;;;;8.80;7.97;;;25.20;82.70;;;;;;5147018;28;20181;-82
2021/10/17 12:38:35;;;;;;;8.50;7.47;;;25.30;79.30;;;;;;5147171;28;20186;-82
2021/10/17 12:41:05;;;;;;;8.70;7.90;;;24.60;83.20;;;;;;5144093;28;20555;-82
2021/10/17 12:43:35;;;;;;;7.83;7.13;;;24.80;79.40;;;;;;5143253;28;20243;-82
2021/10/17 12:46:19;;;;;;;9.87;8.63;;;24.00;83.00;;;;;;5143684;28;20648;-83
2021/10/17 12:48:49;;;;;;;9.93;7.40;;;23.90;81.90;;;;;;5145315;28;20167;-82
2021/10/17 12:51:44;;;;;;;9.23;7.50;;;24.60;82.80;;;;;;5145239;27;20208;-82
2021/10/17 12:54:18;;;;;;;8.80;7.90;;;25.00;79.50;;;;;;5148907;27;20239;-82
2021/10/17 12:56:49;;;;;;;8.43;7.50;;;24.60;79.80;;;;;;5148783;27;20177;-82
2021/10/17 12:59:18;;;;;;;9.20;8.27;;;24.60;82.20;;;;;;5149703;27;20194;-82
2021/10/17 13:02:06;;;;;;;11.13;7.90;;;25.40;77.10;;;;;;5148385;27;20178;-82
2021/10/17 13:04:53;;;;;;;7.90;7.10;;;25.70;76.60;;;;;;5147723;27;20209;-82
2021/10/17 13:07:31;;;;;;;8.77;7.27;;;26.10;76.20;;;;;;5148107;27;20172;-82
2021/10/17 13:10:17;;;;;;;7.80;7.00;;;26.00;74.80;;;;;;5147696;27;20207;-82
2021/10/17 13:12:50;;;;;;;7.50;6.80;;;25.60;75.20;;;;;;5147632;27;20183;-82
2021/10/17 13:15:26;;;;;;;7.97;7.17;;;25.60;74.70;;;;;;5147474;27;20171;-81